Date,TemperatureHighF,TemperatureAvgF,TemperatureLowF,DewpointHighF,DewpointAvgF,DewpointLowF,HumidityHigh,HumidityAvg,HumidityLow,PressureMaxIn,PressureMinIn,WindSpeedMaxMPH,WindSpeedAvgMPH,GustSpeedMaxMPH,PrecipitationSumIn
2013-1-1,34.4,27.0,20.0,24.7,16.9,11.5,73,66,57,30.17,30.01,18,7,18,0.00
2013-1-2,37.1,26.2,14.9,17.6,12.0,4.1,63,55,40,30.25,30.15,16,5,16,0.00
2013-1-3,35.6,26.5,17.1,14.8,9.0,5.6,62,48,38,30.24,30.05,18,6,18,0.00
2013-1-4,40.5,30.8,24.5,18.9,12.2,7.0,54,46,40,30.08,30.00,12,5,12,0.00
2013-1-5,40.7,30.3,24.7,21.2,16.0,10.8,66,55,44,30.20,30.04,13,4,13,0.00
2013-1-6,42.1,32.9,22.0,18.8,15.1,11.1,65,49,37,30.04,29.82,16,4,16,0.00
2013-1-7,44.3,35.3,26.3,24.5,19.6,13.8,67,53,43,29.89,29.63,17,3,17,0.00
2013-1-8,47.9,40.5,31.3,24.5,19.3,13.7,53,43,27,29.97,29.64,25,6,25,0.00
2013-1-9,56.5,44.0,31.0,27.1,22.9,15.9,58,44,29,29.95,29.67,16,4,16,0.00
2013-1-10,47.9,34.3,20.2,28.8,21.2,11.5,73,59,43,29.68,29.49,14,4,14,0.00
2013-1-11,20.2,13.3,10.4,11.3,6.6,4.0,79,74,65,30.06,29.68,10,3,10,0.00
2013-1-12,21.6,12.5,3.6,9.7,4.6,-2.9,76,71,59,30.08,30.03,10,3,10,0.00
2013-1-13,23.0,13.8,8.1,9.8,4.3,0.6,73,66,56,30.13,30.06,15,4,15,0.00
2013-1-14,21.6,15.2,9.4,8.3,4.1,0.9,70,62,50,30.09,29.95,17,7,17,0.00
2013-1-15,32.6,24.9,18.9,19.7,15.0,8.3,75,66,58,30.08,29.95,21,8,21,0.00
2013-1-16,45.5,34.4,25.9,25.7,19.7,15.6,66,55,45,30.25,30.03,17,6,17,0.07
2013-1-17,43.6,34.3,26.5,23.9,18.9,15.1,62,54,44,30.27,29.97,19,7,19,0.00
2013-1-18,55.8,39.2,34.0,23.1,19.1,17.1,51,45,22,29.98,29.85,18,6,18,0.00
2013-1-19,41.8,34.7,22.9,25.2,19.7,15.1,75,55,40,30.19,29.97,8,3,8,0.00
2013-1-20,34.2,24.0,16.7,20.5,14.7,8.8,72,67,57,30.38,30.05,8,3,8,0.00
2013-1-21,30.6,20.6,13.5,18.4,11.7,6.8,76,68,59,30.22,29.96,5,1,5,0.00
2013-1-22,47.9,37.0,13.3,23.7,18.1,6.9,77,48,38,30.03,29.96,13,3,13,0.00
2013-1-23,31.7,23.8,18.4,16.4,13.7,10.4,73,65,50,30.15,29.88,9,2,9,0.00
2013-1-24,53.8,35.6,20.2,29.0,20.4,13.0,76,56,34,30.05,29.81,20,3,20,0.00
2013-1-25,53.8,37.4,22.5,31.7,23.2,14.4,76,58,42,30.05,29.87,11,2,11,0.00
2013-1-26,56.2,43.4,33.5,31.4,26.0,21.3,63,51,38,29.88,29.66,9,2,9,0.00
2013-1-27,38.5,33.3,29.2,32.6,27.0,21.5,83,77,62,29.81,29.67,10,1,10,0.02
2013-1-28,39.1,31.2,23.9,27.9,21.4,13.7,84,68,42,29.81,29.69,16,3,16,0.01
2013-1-29,28.8,21.0,8.3,19.5,10.4,-1.2,72,63,51,30.12,29.68,12,3,12,0.00
2013-1-30,34.9,24.1,10.1,27.1,16.6,2.1,82,73,59,30.00,29.78,17,3,17,0.00
2013-1-31,30.1,17.6,4.0,23.2,10.2,-2.0,78,73,61,30.16,29.95,14,3,14,0.00